Time;durP1;ratioP1;P1;durP2;ratioP2;P2;SDS_P1;SDS_P2;PMS_P1;PMS_P2;Temp;Humidity;BMP_temperature;BMP_pressure;BME280_temperature;BME280_humidity;BME280_pressure;Samples;Min_cycle;Max_cycle;Signal;HPM_P1;HPM_P2
2023/02/27 00:00:27;;;;;;;4.77;2.00;;;;;;;-145.69;100.00;52612.72;5073958;28;20204;-87
2023/02/27 00:02:55;;;;;;;4.00;2.00;;;;;;;-145.69;100.00;52598.84;5078087;28;20210;-86
2023/02/27 00:05:22;;;;;;;3.50;1.60;;;;;;;-145.69;100.00;52614.72;5078646;28;20207;-86
2023/02/27 00:07:48;;;;;;;4.50;2.10;;;;;;;-145.69;100.00;52614.72;5080196;28;20272;-86
2023/02/27 00:10:15;;;;;;;3.03;2.00;;;;;;;-145.69;100.00;52618.66;5080206;28;20739;-87
2023/02/27 00:12:43;;;;;;;5.27;2.30;;;;;;;-145.69;100.00;52614.72;5078515;28;20203;-86
2023/02/27 00:15:12;;;;;;;3.00;2.00;;;;;;;-145.69;100.00;52602.81;5081011;28;20211;-86
2023/02/27 00:17:38;;;;;;;2.77;1.60;;;;;;;-145.69;100.00;52618.66;5079980;28;20230;-87
2023/02/27 00:20:10;;;;;;;4.33;2.20;;;;;;;-145.69;100.00;52583.00;5079209;28;20202;-86
2023/02/27 00:22:36;;;;;;;2.30;2.00;;;;;;;-145.69;100.00;52602.81;5082489;28;20191;-85
2023/02/27 00:25:03;;;;;;;2.93;1.90;;;;;;;-145.69;100.00;52616.69;5083293;28;20210;-87
2023/02/27 00:27:29;;;;;;;2.17;1.97;;;;;;;-145.69;100.00;52596.88;5082258;28;20202;-86
2023/02/27 00:29:55;;;;;;;3.37;1.87;;;;;;;-145.69;100.00;52586.97;5082978;28;20234;-87
2023/02/27 00:32:22;;;;;;;8.10;1.90;;;;;;;-145.69;100.00;52586.97;5083455;28;20209;-85
2023/02/27 00:34:48;;;;;;;2.40;1.40;;;;;;;-145.69;100.00;52632.53;5082855;28;20199;-86
2023/02/27 00:37:16;;;;;;;3.87;2.27;;;;;;;-145.69;100.00;52634.50;5083161;28;20250;-86
2023/02/27 00:39:43;;;;;;;2.53;1.97;;;;;;;-145.69;100.00;52604.81;5082068;28;20206;-85
2023/02/27 00:42:09;;;;;;;2.60;1.73;;;;;;;-145.69;100.00;52622.63;5078572;28;20657;-86
2023/02/27 00:44:37;;;;;;;2.83;1.80;;;;;;;-145.69;100.00;52602.81;5079278;28;20214;-86
2023/02/27 00:47:03;;;;;;;4.07;2.30;;;;;;;-145.69;100.00;52600.84;5078280;28;20730;-85
2023/02/27 00:49:30;;;;;;;5.43;2.20;;;;;;;-145.69;100.00;52586.97;5078338;28;20199;-86
2023/02/27 00:51:56;;;;;;;3.13;2.03;;;;;;;-145.69;100.00;52586.97;5079552;28;20195;-86
2023/02/27 00:54:24;;;;;;;3.70;2.17;;;;;;;-145.69;100.00;52626.59;5080519;28;20206;-86
2023/02/27 00:56:50;;;;;;;4.47;2.20;;;;;;;-145.69;100.00;52583.00;5079767;28;20218;-85
2023/02/27 00:59:17;;;;;;;3.20;2.03;;;;;;;-145.69;100.00;52610.75;5076772;28;20203;-85
2023/02/27 01:01:44;;;;;;;4.77;1.70;;;;;;;-145.69;100.00;52581.03;5076617;28;20195;-85
2023/02/27 01:04:11;;;;;;;3.13;2.00;;;;;;;-145.69;100.00;52608.75;5076897;28;20203;-85
2023/02/27 01:06:37;;;;;;;3.87;1.90;;;;;;;-145.69;100.00;52606.78;5076816;28;20195;-85
2023/02/27 01:09:04;;;;;;;1.90;1.60;;;;;;;-145.69;100.00;52592.91;5076167;28;20198;-85
2023/02/27 01:11:32;;;;;;;2.13;1.80;;;;;;;-145.69;100.00;52608.75;5076258;28;20672;-84
2023/02/27 01:13:59;;;;;;;4.97;1.87;;;;;;;-145.69;100.00;52586.97;5076038;28;20202;-83
2023/02/27 01:16:25;;;;;;;4.07;2.07;;;;;;;-145.69;100.00;52590.94;5075880;28;20198;-84
2023/02/27 01:18:52;;;;;;;3.00;1.83;;;;;;;-145.69;100.00;52577.06;5075119;28;20245;-83
2023/02/27 01:21:18;;;;;;;2.73;1.70;;;;;;;-145.69;100.00;52606.78;5075668;28;20198;-85
2023/02/27 01:23:45;;;;;;;5.73;2.30;;;;;;;-145.69;100.00;52618.66;5075533;28;20202;-84
2023/02/27 01:26:12;;;;;;;5.27;1.80;;;;;;;-145.69;100.00;52594.91;5075538;28;20653;-84
2023/02/27 01:28:39;;;;;;;4.53;1.90;;;;;;;-145.69;100.00;52616.69;5075568;28;20242;-84
2023/02/27 01:31:06;;;;;;;3.43;1.73;;;;;;;-145.69;100.00;52616.69;5075521;28;20214;-84
2023/02/27 01:33:32;;;;;;;1.80;1.70;;;;;;;-145.69;100.00;52610.75;5075626;28;20218;-84
2023/02/27 01:35:59;;;;;;;3.70;1.90;;;;;;;-145.69;100.00;52590.94;5075077;28;20256;-84
2023/02/27 01:38:25;;;;;;;2.53;2.00;;;;;;;-145.69;100.00;52626.59;5075544;28;20231;-84
2023/02/27 01:40:52;;;;;;;1.70;1.60;;;;;;;-145.69;100.00;52581.03;5074946;28;20195;-84
2023/02/27 01:43:20;;;;;;;7.00;2.07;;;;;;;-145.69;100.00;52602.81;5075310;28;20195;-84
2023/02/27 01:45:49;;;;;;;2.60;1.83;;;;;;;-145.69;100.00;52602.81;5076517;28;20206;-85
2023/02/27 01:48:19;;;;;;;4.63;2.27;;;;;;;-145.69;100.00;52598.84;5074117;28;20230;-85
2023/02/27 01:50:52;;;;;;;3.80;2.07;;;;;;;-145.69;100.00;52606.78;5075589;28;20677;-85
2023/02/27 01:53:23;;;;;;;4.40;2.00;;;;;;;-145.69;100.00;52604.81;5075744;28;20557;-85
2023/02/27 01:55:50;;;;;;;5.03;1.93;;;;;;;-145.69;100.00;52606.78;5075668;28;20217;-85
2023/02/27 01:58:16;;;;;;;3.60;1.97;;;;;;;-145.69;100.00;52598.84;5080083;28;20223;-86
2023/02/27 02:00:43;;;;;;;2.43;1.97;;;;;;;-145.69;100.00;52588.97;5080390;28;20194;-85
2023/02/27 02:03:18;;;;;;;6.70;1.90;;;;;;;-145.69;100.00;52606.78;5080901;28;20202;-86
2023/02/27 02:05:46;;;;;;;2.87;2.13;;;;;;;-145.69;100.00;52618.66;5078116;28;20595;-86
2023/02/27 02:08:17;;;;;;;2.83;2.00;;;;;;;-145.69;100.00;52586.97;5076995;28;20234;-86
2023/02/27 02:10:45;;;;;;;2.60;1.80;;;;;;;-145.69;100.00;52612.72;5079329;28;20210;-86
2023/02/27 02:13:12;;;;;;;2.70;1.70;;;;;;;-145.69;100.00;52622.63;5080329;28;20206;-86
2023/02/27 02:15:45;;;;;;;2.47;2.10;;;;;;;-145.69;100.00;52608.75;5058465;28;20230;-85
2023/02/27 02:18:21;;;;;;;4.57;1.80;;;;;;;-145.69;100.00;52598.84;5075274;28;20719;-85
2023/02/27 02:21:24;;;;;;;3.40;1.60;;;;;;;-145.69;100.00;52586.97;5079630;28;20229;-85
2023/02/27 02:24:20;;;;;;;3.03;2.00;;;;;;;-145.69;100.00;52610.75;5067862;28;20198;-86
2023/02/27 02:26:57;;;;;;;3.20;2.00;;;;;;;-145.69;100.00;52618.66;5079057;28;20198;-86
2023/02/27 02:30:08;;;;;;;2.50;1.97;;;;;;;-145.69;100.00;52563.22;5077552;28;20265;-86
2023/02/27 02:33:28;;;;;;;3.07;1.90;;;;;;;-145.69;100.00;52606.78;5077837;28;20195;-85
2023/02/27 02:36:35;;;;;;;3.77;2.30;;;;;;;-145.69;100.00;52626.59;5076822;28;20206;-86
2023/02/27 02:42:04;;;;;;;3.23;2.40;;;;;;;-145.69;100.00;52588.97;5133064;27;20533;-86
2023/02/27 02:44:39;;;;;;;4.00;2.17;;;;;;;-145.69;100.00;52596.88;5132414;28;20196;-87
2023/02/27 02:47:16;;;;;;;3.83;1.80;;;;;;;-145.69;100.00;52600.84;5132830;28;20192;-87
2023/02/27 02:49:51;;;;;;;2.57;2.10;;;;;;;-145.69;100.00;52606.78;5131952;27;20189;-87
2023/02/27 02:52:25;;;;;;;5.57;2.27;;;;;;;-145.69;100.00;52598.84;5131962;27;20192;-86
2023/02/27 02:54:57;;;;;;;3.70;2.10;;;;;;;-145.69;100.00;52618.66;5132371;28;20193;-86
2023/02/27 02:57:33;;;;;;;3.50;2.10;;;;;;;-145.69;100.00;52563.22;5133876;27;20201;-87
2023/02/27 03:00:05;;;;;;;3.30;2.23;;;;;;;-145.69;100.00;52608.75;5133967;28;20216;-85
2023/02/27 03:02:38;;;;;;;7.00;2.33;;;;;;;-145.69;100.00;52604.81;5134055;27;20199;-86
2023/02/27 03:05:08;;;;;;;4.30;2.03;;;;;;;-145.69;100.00;52620.66;5133926;27;20193;-84
2023/02/27 03:07:41;;;;;;;2.63;2.00;;;;;;;-145.69;100.00;52604.81;5116485;28;20546;-85
2023/02/27 03:10:11;;;;;;;3.07;2.20;;;;;;;-145.69;100.00;52632.53;5135175;27;20250;-86
2023/02/27 03:12:41;;;;;;;8.53;2.40;;;;;;;-145.69;100.00;52579.06;5136214;27;20550;-85
2023/02/27 03:15:15;;;;;;;4.00;1.90;;;;;;;-145.69;100.00;52630.53;5134104;27;20193;-85
2023/02/27 03:17:46;;;;;;;4.53;2.20;;;;;;;-145.69;100.00;52616.69;5134082;28;20197;-85
2023/02/27 03:20:18;;;;;;;3.37;2.03;;;;;;;-145.69;100.00;52606.78;5132528;28;20249;-85
2023/02/27 03:22:52;;;;;;;3.27;2.23;;;;;;;-145.69;100.00;52561.22;5134115;28;20197;-85
2023/02/27 03:25:20;;;;;;;4.00;2.20;;;;;;;-145.69;100.00;52588.97;5133774;27;20656;-84
2023/02/27 03:27:53;;;;;;;4.33;2.30;;;;;;;-145.69;100.00;52618.66;5133154;28;20212;-85
2023/02/27 03:30:25;;;;;;;3.63;2.37;;;;;;;-145.69;100.00;52618.66;5134090;28;20205;-85
2023/02/27 03:32:56;;;;;;;4.33;2.00;;;;;;;-145.69;100.00;52640.44;5132271;27;20200;-85
2023/02/27 03:35:28;;;;;;;2.97;2.10;;;;;;;-145.69;100.00;52555.28;5131708;28;20193;-85
2023/02/27 03:38:01;;;;;;;2.87;2.20;;;;;;;-145.69;100.00;52614.72;5131300;28;20207;-84
2023/02/27 03:40:33;;;;;;;4.47;2.07;;;;;;;-145.69;100.00;52592.91;5131256;27;20574;-82
2023/02/27 03:43:08;;;;;;;3.73;2.13;;;;;;;-145.69;100.00;52559.25;5132612;27;20208;-85
2023/02/27 03:45:43;;;;;;;3.77;2.13;;;;;;;-145.69;100.00;52606.78;5132260;28;20203;-85
2023/02/27 03:48:09;;;;;;;3.53;2.20;;;;;;;-145.69;100.00;52622.63;5131117;27;20200;-85
2023/02/27 03:50:37;;;;;;;3.30;1.90;;;;;;;-145.69;100.00;52630.53;5132149;27;20220;-84
2023/02/27 03:53:07;;;;;;;8.20;2.20;;;;;;;-145.69;100.00;52606.78;5119518;27;20194;-85
2023/02/27 03:55:37;;;;;;;4.00;2.20;;;;;;;-145.69;100.00;52614.72;5111634;28;20582;-84
2023/02/27 03:58:05;;;;;;;5.00;2.40;;;;;;;-145.69;100.00;52604.81;5098739;28;20194;-85
2023/02/27 04:00:32;;;;;;;5.60;2.60;;;;;;;-145.69;100.00;52622.63;5097535;28;20229;-85
2023/02/27 04:03:01;;;;;;;6.10;2.00;;;;;;;-145.69;100.00;52638.47;5096914;28;20201;-85
2023/02/27 04:05:28;;;;;;;2.63;2.10;;;;;;;-145.69;100.00;52579.06;5113504;28;20210;-81
2023/02/27 04:08:15;;;;;;;3.37;2.10;;;;;;;-145.69;100.00;52590.94;5098840;28;20232;-85
2023/02/27 04:10:54;;;;;;;4.83;2.70;;;;;;;-145.69;100.00;52596.88;5117445;28;20272;-85
2023/02/27 04:13:44;;;;;;;5.70;2.40;;;;;;;-145.69;100.00;52614.72;5116760;28;20196;-84
2023/02/27 04:16:37;;;;;;;6.77;2.90;;;;;;;-145.69;100.00;52602.81;5117413;28;20197;-85
2023/02/27 04:19:16;;;;;;;5.20;2.10;;;;;;;-145.69;100.00;52602.81;5116771;28;20655;-85
2023/02/27 04:21:56;;;;;;;2.67;2.23;;;;;;;-145.69;100.00;52594.91;5116596;28;20228;-84
2023/02/27 04:24:35;;;;;;;3.30;2.20;;;;;;;-145.69;100.00;52608.75;5116617;28;20208;-84
2023/02/27 04:27:12;;;;;;;6.97;2.90;;;;;;;-145.69;100.00;52614.72;5116645;28;20208;-84
2023/02/27 04:29:50;;;;;;;4.90;2.40;;;;;;;-145.69;100.00;52614.72;5116629;28;20197;-84
2023/02/27 04:32:24;;;;;;;3.87;2.60;;;;;;;-145.69;100.00;52598.84;5116352;28;20255;-84
2023/02/27 04:34:54;;;;;;;4.03;2.40;;;;;;;-145.69;100.00;52600.84;5116543;28;20197;-85
2023/02/27 04:37:27;;;;;;;4.20;2.37;;;;;;;-145.69;100.00;52618.66;5116462;28;20193;-84
2023/02/27 04:39:58;;;;;;;6.13;2.23;;;;;;;-145.69;100.00;52596.88;5116771;28;20236;-85
2023/02/27 04:42:29;;;;;;;3.87;2.50;;;;;;;-145.69;100.00;52592.91;5117440;28;20229;-85
2023/02/27 04:45:00;;;;;;;5.33;2.43;;;;;;;-145.69;100.00;52602.81;5117303;28;20201;-85
2023/02/27 04:47:33;;;;;;;4.23;2.37;;;;;;;-145.69;100.00;52596.88;5118600;28;20514;-85
2023/02/27 04:50:04;;;;;;;3.20;2.00;;;;;;;-145.69;100.00;52614.72;5100436;28;20197;-85
2023/02/27 04:52:36;;;;;;;5.57;2.53;;;;;;;-145.69;100.00;52585.00;5117619;28;20255;-85
2023/02/27 04:55:08;;;;;;;5.00;2.47;;;;;;;-145.69;100.00;52610.75;5117145;28;20202;-85
2023/02/27 04:57:40;;;;;;;3.60;2.50;;;;;;;-145.69;100.00;52602.81;5117765;28;20197;-85
2023/02/27 05:00:12;;;;;;;4.60;2.40;;;;;;;-145.69;100.00;52588.97;5117001;28;20197;-85
2023/02/27 05:02:43;;;;;;;6.07;2.70;;;;;;;-145.69;100.00;52592.91;5115968;28;20200;-84
2023/02/27 05:05:14;;;;;;;4.43;2.70;;;;;;;-145.69;100.00;52642.44;5115595;28;20201;-84
2023/02/27 05:07:44;;;;;;;5.60;2.40;;;;;;;-145.69;100.00;52590.94;5116254;28;20652;-85
2023/02/27 05:10:15;;;;;;;3.20;2.40;;;;;;;-145.69;100.00;52618.66;5116248;28;20200;-85
2023/02/27 05:12:47;;;;;;;7.10;2.73;;;;;;;-145.69;100.00;52602.81;5098433;28;20682;-85
2023/02/27 05:15:21;;;;;;;5.23;2.40;;;;;;;-145.69;100.00;52614.72;5116742;28;20201;-85
2023/02/27 05:17:56;;;;;;;3.00;2.23;;;;;;;-145.69;100.00;52620.66;5116813;28;20229;-85
2023/02/27 05:20:27;;;;;;;3.93;2.40;;;;;;;-145.69;100.00;52600.84;5116825;28;20208;-85
2023/02/27 05:22:59;;;;;;;5.80;3.53;;;;;;;-145.69;100.00;52590.94;5116317;28;20204;-85
2023/02/27 05:25:31;;;;;;;5.10;2.40;;;;;;;-145.69;100.00;52626.59;5116059;28;20198;-85
2023/02/27 05:28:02;;;;;;;2.87;2.37;;;;;;;-145.69;100.00;52598.84;5115897;28;20208;-85
2023/02/27 05:30:36;;;;;;;4.83;2.67;;;;;;;-145.69;100.00;52590.94;5115484;28;20277;-85
2023/02/27 05:33:07;;;;;;;3.37;2.53;;;;;;;-145.69;100.00;52656.28;5115245;28;20212;-85
2023/02/27 05:35:42;;;;;;;3.10;2.30;;;;;;;-145.69;100.00;52618.66;5115771;28;20198;-84
2023/02/27 05:38:11;;;;;;;4.40;3.10;;;;;;;-145.69;100.00;52628.56;5115809;28;20601;-85
2023/02/27 05:40:42;;;;;;;5.80;2.80;;;;;;;-145.69;100.00;52616.69;5115360;28;20225;-85
2023/02/27 05:43:13;;;;;;;4.53;2.77;;;;;;;-145.69;100.00;52577.06;5115032;28;20201;-85
2023/02/27 05:45:45;;;;;;;6.73;2.80;;;;;;;-145.69;100.00;52614.72;5115136;28;20200;-85
2023/02/27 05:48:15;;;;;;;4.27;2.60;;;;;;;-145.69;100.00;52616.69;5114990;28;20201;-85
2023/02/27 05:50:43;;;;;;;5.13;2.87;;;;;;;-145.69;100.00;52602.81;5110385;28;20197;-84
2023/02/27 05:53:15;;;;;;;3.43;2.70;;;;;;;-145.69;100.00;52634.50;5114597;28;20559;-84
2023/02/27 05:55:47;;;;;;;6.83;3.10;;;;;;;-145.69;100.00;52600.84;5114611;28;20202;-84
2023/02/27 05:58:19;;;;;;;4.67;3.20;;;;;;;-145.69;100.00;52586.97;5096610;28;20225;-85
2023/02/27 06:00:53;;;;;;;4.27;3.17;;;;;;;-145.69;100.00;52598.84;5115598;28;20201;-85
2023/02/27 06:03:20;;;;;;;7.57;3.03;;;;;;;-145.69;100.00;52612.72;5114289;28;20184;-84
2023/02/27 06:05:48;;;;;;;5.40;3.00;;;;;;;-145.69;100.00;52632.53;5115603;28;20647;-85
2023/02/27 06:08:14;;;;;;;6.10;2.67;;;;;;;-145.69;100.00;52594.91;5096698;28;20655;-84
2023/02/27 06:10:40;;;;;;;6.97;2.93;;;;;;;-145.69;100.00;52594.91;5114590;28;20201;-84
2023/02/27 06:13:07;;;;;;;5.37;2.40;;;;;;;-145.69;100.00;52630.53;5114699;28;20204;-85
2023/02/27 06:15:33;;;;;;;5.80;2.83;;;;;;;-145.69;100.00;52630.53;5114438;28;20197;-85
2023/02/27 06:18:01;;;;;;;5.17;2.80;;;;;;;-145.69;100.00;52592.91;5114256;28;20193;-85
2023/02/27 06:20:28;;;;;;;5.37;2.60;;;;;;;-145.69;100.00;52628.56;5115235;28;20647;-85
2023/02/27 06:22:54;;;;;;;6.20;2.83;;;;;;;-145.69;100.00;52614.72;5114159;28;20232;-84
2023/02/27 06:25:21;;;;;;;5.53;2.77;;;;;;;-145.69;100.00;52626.59;5114445;28;20208;-84
2023/02/27 06:27:47;;;;;;;6.03;2.93;;;;;;;-145.69;100.00;52596.88;5114586;28;20197;-83
2023/02/27 06:30:14;;;;;;;5.90;3.20;;;;;;;-145.69;100.00;52586.97;5114669;28;20566;-85
2023/02/27 06:32:41;;;;;;;6.37;2.70;;;;;;;-145.69;100.00;52610.75;5114443;28;20201;-85
2023/02/27 06:35:09;;;;;;;5.37;3.00;;;;;;;-145.69;100.00;52640.44;5115059;28;20212;-86
2023/02/27 06:37:36;;;;;;;6.10;3.07;;;;;;;-145.69;100.00;52638.47;5115320;28;20237;-85
2023/02/27 06:40:04;;;;;;;6.27;3.00;;;;;;;-145.69;100.00;52610.75;5115044;28;20229;-85
2023/02/27 06:42:31;;;;;;;7.63;3.47;;;;;;;-145.69;100.00;52648.38;5114799;28;20224;-85
2023/02/27 06:44:57;;;;;;;5.37;3.33;;;;;;;-145.69;100.00;52618.66;5115002;28;20193;-85
2023/02/27 06:47:24;;;;;;;8.90;3.10;;;;;;;-145.69;100.00;52606.78;5114137;28;20193;-85
2023/02/27 06:49:50;;;;;;;6.50;3.23;;;;;;;-145.69;100.00;52592.91;5114379;28;20201;-86
2023/02/27 06:52:18;;;;;;;3.57;2.90;;;;;;;-145.69;100.00;52590.94;5115271;28;20197;-87
2023/02/27 06:54:44;;;;;;;6.83;2.80;;;;;;;-145.69;100.00;52612.72;5114356;28;20206;-85
2023/02/27 06:57:11;;;;;;;6.80;3.00;;;;;;;-145.69;100.00;52616.69;5114606;28;20209;-85
2023/02/27 06:59:37;;;;;;;5.23;2.70;;;;;;;-145.69;100.00;52638.47;5114969;28;20207;-85
2023/02/27 07:02:04;;;;;;;5.27;2.73;;;;;;;-145.69;100.00;52612.72;5096431;28;20722;-85
2023/02/27 07:04:30;;;;;;;6.50;3.00;;;;;;;-145.69;100.00;52610.75;5114086;28;20635;-85
2023/02/27 07:06:58;;;;;;;5.07;2.73;;;;;;;-145.69;100.00;52579.06;5114095;28;20197;-84
2023/02/27 07:09:27;;;;;;;5.53;2.90;;;;;;;-145.69;100.00;52622.63;5114745;28;20608;-85
2023/02/27 07:11:53;;;;;;;3.63;2.40;;;;;;;-145.69;100.00;52630.53;5113891;28;20197;-85
2023/02/27 07:14:20;;;;;;;6.67;2.60;;;;;;;-145.69;100.00;52583.00;5113968;28;20205;-85
2023/02/27 07:16:49;;;;;;;5.97;3.13;;;;;;;-145.69;100.00;52630.53;5113647;28;20197;-86
2023/02/27 07:19:16;;;;;;;7.80;3.10;;;;;;;-145.69;100.00;52618.66;5114402;28;20197;-85
2023/02/27 07:21:43;;;;;;;5.00;2.73;;;;;;;-145.69;100.00;52634.50;5114314;28;20268;-85
2023/02/27 07:24:09;;;;;;;3.00;2.50;;;;;;;-145.69;100.00;52608.75;5113874;28;20201;-85
2023/02/27 07:26:37;;;;;;;3.97;2.60;;;;;;;-145.69;100.00;52616.69;5115005;28;20221;-85
2023/02/27 07:29:05;;;;;;;5.07;2.80;;;;;;;-145.69;100.00;52598.84;5118136;28;20197;-85
2023/02/27 07:31:31;;;;;;;4.50;2.83;;;;;;;-145.69;100.00;52592.91;5118439;28;20194;-85
2023/02/27 07:33:58;;;;;;;5.13;2.70;;;;;;;-145.69;100.00;52618.66;5117802;28;20198;-85
2023/02/27 07:36:24;;;;;;;5.50;2.60;;;;;;;-145.69;100.00;52598.84;5118116;28;20208;-85
2023/02/27 07:38:51;;;;;;;4.73;2.40;;;;;;;-145.69;100.00;52598.84;5119103;28;20208;-85
2023/02/27 07:41:17;;;;;;;5.60;2.80;;;;;;;-145.69;100.00;52622.63;5118754;28;20225;-85
2023/02/27 07:43:45;;;;;;;4.10;2.53;;;;;;;-145.69;100.00;52630.53;5118160;28;20450;-84
2023/02/27 07:46:12;;;;;;;5.70;2.43;;;;;;;-145.69;100.00;52630.53;5118717;28;20591;-85
2023/02/27 07:48:39;;;;;;;6.33;2.77;;;;;;;-145.69;100.00;52592.91;5117511;28;20644;-84
2023/02/27 07:51:06;;;;;;;4.70;2.30;;;;;;;-145.69;100.00;52624.59;5117601;28;20229;-84
2023/02/27 07:53:33;;;;;;;3.47;2.30;;;;;;;-145.69;100.00;52626.59;5117367;28;20189;-85
2023/02/27 07:56:00;;;;;;;5.77;2.30;;;;;;;-145.69;100.00;52626.59;5107179;28;20560;-86
2023/02/27 07:58:26;;;;;;;7.00;2.63;;;;;;;-145.69;100.00;52610.75;5096812;28;20202;-86
2023/02/27 08:00:54;;;;;;;5.40;2.13;;;;;;;-145.69;100.00;52622.63;5097578;28;20202;-85
2023/02/27 08:03:21;;;;;;;6.50;2.07;;;;;;;-145.69;100.00;52634.50;5106725;28;20217;-85
2023/02/27 08:05:47;;;;;;;4.40;2.23;;;;;;;-145.69;100.00;52618.66;5117454;28;20533;-85
2023/02/27 08:08:14;;;;;;;4.70;2.33;;;;;;;-145.69;100.00;52648.38;5116614;28;20224;-85
2023/02/27 08:10:40;;;;;;;3.03;2.10;;;;;;;-145.69;100.00;52583.00;5116860;28;20205;-85
2023/02/27 08:13:07;;;;;;;3.50;2.23;;;;;;;-145.69;100.00;52606.78;5116293;28;20209;-85
2023/02/27 08:15:33;;;;;;;3.63;1.97;;;;;;;-145.69;100.00;52646.41;5116818;28;20209;-84
2023/02/27 08:18:01;;;;;;;5.07;2.30;;;;;;;-145.69;100.00;52616.69;5116010;28;20198;-85
2023/02/27 08:20:28;;;;;;;4.73;2.27;;;;;;;-145.69;100.00;52551.31;5116745;28;20198;-85
2023/02/27 08:22:54;;;;;;;6.27;2.17;;;;;;;-145.69;100.00;52590.94;5116659;28;20232;-84
2023/02/27 08:25:21;;;;;;;6.63;2.23;;;;;;;-145.69;100.00;52600.84;5116328;28;20202;-84
2023/02/27 08:27:47;;;;;;;5.97;2.47;;;;;;;-145.69;100.00;52610.75;5115954;28;20263;-85
2023/02/27 08:30:15;;;;;;;3.40;1.83;;;;;;;-145.69;100.00;52600.84;5115995;28;20647;-84
2023/02/27 08:32:42;;;;;;;3.50;2.00;;;;;;;-145.69;100.00;52606.78;5116082;28;20565;-84
2023/02/27 08:35:10;;;;;;;4.33;2.00;;;;;;;-145.69;100.00;52622.63;5115712;28;20216;-85
2023/02/27 08:37:37;;;;;;;2.20;1.77;;;;;;;-145.69;100.00;52596.88;5116420;28;20205;-84
2023/02/27 08:40:05;;;;;;;2.43;1.70;;;;;;;-145.69;100.00;52590.94;5115431;28;20221;-83
2023/02/27 08:42:32;;;;;;;5.97;2.40;;;;;;;-145.69;100.00;52543.41;5115595;28;20217;-83
2023/02/27 08:44:59;;;;;;;4.73;2.10;;;;;;;-145.69;99.51;52579.06;5115518;28;20201;-80
2023/02/27 08:47:25;;;;;;;3.73;1.97;;;;;;;-145.69;100.00;52606.78;5118190;28;20189;-82
2023/02/27 08:49:52;;;;;;;4.30;2.10;;;;;;;-145.69;100.00;52608.75;5117903;28;20254;-82
2023/02/27 08:52:20;;;;;;;4.43;1.90;;;;;;;-145.69;99.83;52594.91;5098750;28;20678;-81
2023/02/27 08:54:46;;;;;;;6.77;2.37;;;;;;;-145.69;99.10;52604.81;5116193;28;20208;-82
2023/02/27 08:57:12;;;;;;;3.87;2.03;;;;;;;-145.69;100.00;52608.75;5115928;28;20201;-82
2023/02/27 08:59:39;;;;;;;4.87;2.57;;;;;;;-145.69;100.00;52579.06;5115453;28;20201;-82
2023/02/27 09:02:05;;;;;;;7.70;2.30;;;;;;;-145.69;99.20;52594.91;5115587;28;20228;-81
2023/02/27 09:04:32;;;;;;;4.93;2.33;;;;;;;-145.69;97.46;52596.88;5116503;28;20201;-85
2023/02/27 09:06:58;;;;;;;4.70;2.40;;;;;;;-145.69;97.07;52581.03;5098120;28;20725;-87
2023/02/27 09:09:26;;;;;;;3.47;1.90;;;;;;;-145.69;95.61;52579.06;5117387;28;20201;-83
2023/02/27 09:11:53;;;;;;;5.57;2.40;;;;;;;-145.69;95.35;52626.59;5116249;28;20255;-87
2023/02/27 09:14:20;;;;;;;6.03;2.30;;;;;;;-145.69;94.21;52581.03;5116631;28;20197;-85
2023/02/27 09:16:46;;;;;;;3.97;1.87;;;;;;;-145.69;91.96;52586.97;5116793;28;20662;-84
2023/02/27 09:19:13;;;;;;;5.23;1.93;;;;;;;-145.69;91.37;52585.00;5116877;28;20201;-85
2023/02/27 09:21:40;;;;;;;3.40;1.90;;;;;;;-145.69;92.52;52618.66;5116674;28;20225;-84
2023/02/27 09:24:07;;;;;;;6.00;2.10;;;;;;;-145.69;90.67;52585.00;5116745;28;20199;-86
2023/02/27 09:26:35;;;;;;;5.37;2.00;;;;;;;-145.69;90.07;52579.06;5115655;28;20193;-84
2023/02/27 09:29:01;;;;;;;3.47;1.93;;;;;;;-145.69;90.46;52600.84;5115406;28;20209;-83
2023/02/27 09:31:28;;;;;;;5.70;2.17;;;;;;;-145.69;90.47;52620.66;5114411;28;20655;-82
2023/02/27 09:33:56;;;;;;;2.93;1.80;;;;;;;-145.69;87.81;52571.13;5115048;28;20225;-83
2023/02/27 09:36:22;;;;;;;3.57;1.93;;;;;;;-145.69;89.64;52624.59;5114887;28;20193;-84
2023/02/27 09:38:49;;;;;;;4.53;2.10;;;;;;;-145.69;85.66;52598.84;5115375;28;20200;-84
2023/02/27 09:41:38;;;;;;;3.90;1.83;;;;;;;-145.69;85.53;52598.84;5116644;28;20233;-85
2023/02/27 09:44:19;;;;;;;3.40;1.80;;;;;;;-145.69;86.32;52557.28;5117259;28;20232;-84
2023/02/27 09:46:46;;;;;;;3.27;1.90;;;;;;;-145.69;84.82;52563.22;5117719;28;20537;-81
2023/02/27 09:49:18;;;;;;;3.30;2.03;;;;;;;-145.69;83.74;52592.91;5114070;28;20682;-83
2023/02/27 09:51:45;;;;;;;5.13;1.93;;;;;;;-145.69;87.31;52586.97;5114008;28;20201;-78
2023/02/27 09:54:12;;;;;;;3.87;2.03;;;;;;;-145.69;86.88;52527.56;5114012;28;20576;-80
2023/02/27 09:56:47;;;;;;;3.10;1.77;;;;;;;-145.69;85.56;52586.97;5114327;28;20226;-81
2023/02/27 09:59:20;;;;;;;2.80;1.60;;;;;;;-145.69;82.48;52612.72;5114268;28;20570;-81
2023/02/27 10:01:52;;;;;;;3.00;1.90;;;;;;;-145.69;82.42;52579.06;5114096;28;20216;-82
2023/02/27 10:04:30;;;;;;;7.47;1.70;;;;;;;-145.69;83.50;52590.94;5113138;28;20201;-86
2023/02/27 10:07:02;;;;;;;3.80;2.10;;;;;;;-145.69;83.96;52581.03;5117454;28;20201;-81
2023/02/27 10:09:37;;;;;;;4.90;2.20;;;;;;;-145.69;82.35;52549.34;5114910;28;20200;-84
2023/02/27 10:12:16;;;;;;;2.10;1.80;;;;;;;-145.69;82.23;52579.06;5115320;28;20181;-84
2023/02/27 10:14:47;;;;;;;3.00;1.87;;;;;;;-145.69;81.52;52563.22;5114792;28;20204;-85
2023/02/27 10:17:17;;;;;;;2.40;1.90;;;;;;;-145.69;83.38;52602.81;5115493;28;20205;-85
2023/02/27 10:19:46;;;;;;;5.60;1.77;;;;;;;-145.69;82.28;52579.06;5115851;28;20255;-86
2023/02/27 10:22:19;;;;;;;5.47;1.97;;;;;;;-145.69;76.93;52590.94;5115741;28;20221;-85
2023/02/27 10:24:50;;;;;;;4.77;2.23;;;;;;;-145.69;78.38;52539.44;5116184;28;20197;-85
2023/02/27 10:27:20;;;;;;;3.03;1.93;;;;;;;-145.69;75.84;52559.25;5115987;28;20359;-85
2023/02/27 10:29:48;;;;;;;3.30;1.80;;;;;;;-145.69;78.57;52575.09;5099402;28;20227;-86
2023/02/27 10:32:19;;;;;;;3.23;1.93;;;;;;;-145.69;76.42;52581.03;5116107;28;20193;-85
2023/02/27 10:34:51;;;;;;;2.93;2.27;;;;;;;-145.69;75.75;52551.31;5098366;28;20197;-86
2023/02/27 10:37:21;;;;;;;4.77;1.73;;;;;;;-145.69;78.48;52579.06;5115846;28;20201;-86
2023/02/27 10:39:51;;;;;;;10.10;2.37;;;;;;;-145.69;75.98;52596.88;5115948;28;20245;-86
2023/02/27 10:42:18;;;;;;;4.13;2.00;;;;;;;-145.69;76.39;52583.00;5118053;28;20231;-85
2023/02/27 10:44:45;;;;;;;3.73;1.60;;;;;;;-145.69;71.88;52598.84;5117617;28;20201;-84
2023/02/27 10:47:15;;;;;;;3.40;1.70;;;;;;;-145.69;75.25;52585.00;5115399;28;20200;-85
2023/02/27 10:49:43;;;;;;;4.57;1.90;;;;;;;-145.69;74.06;52563.22;5117407;28;20215;-86
2023/02/27 10:52:12;;;;;;;4.13;1.93;;;;;;;-145.69;72.23;52569.16;5116895;28;20208;-85
2023/02/27 10:54:39;;;;;;;3.43;1.90;;;;;;;-145.69;72.24;52573.13;5116595;28;20197;-86
2023/02/27 10:57:19;;;;;;;2.50;1.67;;;;;;;-145.69;72.23;52561.22;5115238;28;20201;-84
2023/02/27 10:59:52;;;;;;;3.87;2.13;;;;;;;-145.69;65.84;52596.88;5115494;28;20223;-85
2023/02/27 11:02:24;;;;;;;3.53;1.63;;;;;;;-145.69;67.65;52551.31;5115447;28;20540;-85
2023/02/27 11:04:53;;;;;;;4.40;1.83;;;;;;;-145.69;70.82;52583.00;5117978;28;20189;-86
2023/02/27 11:07:28;;;;;;;4.17;1.97;;;;;;;-145.69;70.96;52585.00;5120106;28;20362;-86
2023/02/27 11:10:00;;;;;;;3.87;2.13;;;;;;;-145.69;69.26;52583.00;5120241;28;20197;-86
2023/02/27 11:12:28;;;;;;;5.80;2.07;;;;;;;-145.69;67.10;52537.47;5116682;28;20208;-81
2023/02/27 11:14:56;;;;;;;4.93;1.77;;;;;;;-145.69;63.57;52559.25;5115307;28;20205;-81
2023/02/27 11:17:28;;;;;;;5.87;2.13;;;;;;;-145.69;65.33;52571.13;5116951;27;20208;-82
2023/02/27 11:19:55;;;;;;;4.57;2.07;;;;;;;-145.69;66.58;52569.16;5118393;28;20220;-84
2023/02/27 11:22:23;;;;;;;2.60;1.70;;;;;;;-145.69;68.96;52569.16;5117811;28;20229;-83
2023/02/27 11:24:50;;;;;;;9.17;2.20;;;;;;;-145.69;72.49;52585.00;5096726;28;20197;-81
2023/02/27 11:27:20;;;;;;;3.90;2.23;;;;;;;-145.69;67.60;52561.22;5101284;28;20189;-83